createdAt,value
2018-06-27T00:07:23.248Z,14.98
2018-06-27T00:17:17.664Z,15.03
2018-06-27T00:27:13.629Z,15.10
2018-06-27T00:37:11.659Z,14.87
2018-06-27T00:47:09.068Z,14.90
2018-06-27T00:57:04.676Z,14.90
2018-06-27T01:07:03.015Z,14.85
2018-06-27T01:17:01.292Z,14.69
2018-06-27T01:26:55.324Z,14.69
2018-06-27T01:36:52.985Z,14.72
2018-06-27T01:46:51.832Z,14.61
2018-06-27T01:56:48.900Z,14.46
2018-06-27T02:06:46.106Z,14.42
2018-06-27T02:16:43.287Z,14.28
2018-06-27T02:26:41.071Z,14.28
2018-06-27T02:36:37.778Z,14.20
2018-06-27T02:46:37.112Z,14.23
2018-06-27T02:56:36.050Z,14.10
2018-06-27T03:06:32.329Z,13.96
2018-06-27T03:16:28.983Z,13.78
2018-06-27T03:26:25.470Z,14.11
2018-06-27T03:36:24.444Z,14.02
2018-06-27T03:46:21.528Z,13.77
2018-06-27T03:56:18.061Z,13.91
2018-06-27T04:06:16.681Z,13.77
2018-06-27T04:16:12.939Z,13.84
2018-06-27T04:26:09.479Z,13.99
2018-06-27T04:36:07.489Z,14.01
2018-06-27T04:46:02.852Z,14.17
2018-06-27T04:55:59.752Z,14.38
2018-06-27T05:05:55.838Z,14.57
2018-06-27T05:15:52.899Z,15.12
2018-06-27T05:25:46.797Z,15.33
2018-06-27T05:35:43.665Z,15.68
2018-06-27T05:45:41.900Z,15.53
2018-06-27T05:55:39.171Z,15.67
2018-06-27T06:05:37.367Z,16.27
2018-06-27T06:15:17.050Z,15.78
2018-06-27T06:25:15.622Z,15.86
2018-06-27T06:35:11.670Z,15.92
2018-06-27T06:45:08.398Z,16.27
2018-06-27T06:55:05.562Z,17.14
2018-06-27T07:05:03.067Z,17.29
2018-06-27T07:14:57.455Z,17.87
2018-06-27T07:24:55.904Z,17.89
2018-06-27T07:34:53.035Z,18.47
2018-06-27T07:44:51.695Z,18.55
2018-06-27T07:54:49.319Z,18.95
2018-06-27T08:04:45.937Z,18.71
2018-06-27T08:14:42.312Z,18.67
2018-06-27T08:24:41.634Z,19.27
2018-06-27T08:34:40.073Z,19.21
2018-06-27T08:44:37.438Z,18.84
2018-06-27T08:54:36.821Z,19.94
2018-06-27T09:04:33.308Z,20.08
2018-06-27T09:14:29.999Z,20.06
2018-06-27T09:24:27.911Z,19.60
2018-06-27T09:34:24.855Z,20.08
2018-06-27T09:44:21.870Z,20.26
2018-06-27T09:54:20.200Z,20.40
2018-06-27T10:04:18.247Z,20.69
2018-06-27T10:14:17.258Z,20.03
2018-06-27T10:24:13.160Z,19.86
2018-06-27T10:34:10.994Z,20.84
2018-06-27T10:44:08.407Z,20.19
2018-06-27T10:54:03.428Z,20.19
2018-06-27T11:04:00.324Z,20.13
2018-06-27T11:13:58.168Z,20.27
2018-06-27T11:23:57.109Z,20.43
2018-06-27T11:33:52.551Z,20.62
2018-06-27T11:43:50.850Z,21.35
2018-06-27T11:53:48.508Z,20.74
2018-06-27T12:03:31.129Z,20.31
2018-06-27T12:13:27.094Z,20.82
2018-06-27T12:23:26.564Z,21.19
2018-06-27T12:33:20.536Z,20.64
2018-06-27T12:43:05.233Z,25.08
2018-06-27T12:52:40.035Z,24.38
2018-06-27T13:02:11.715Z,26.07
2018-06-27T13:11:50.109Z,25.55
2018-06-27T13:21:29.147Z,25.67
2018-06-27T13:31:01.700Z,22.34
2018-06-27T13:40:35.787Z,21.60
2018-06-27T13:50:31.369Z,22.17
2018-06-27T14:00:10.024Z,25.49
2018-06-27T14:09:49.525Z,25.38
2018-06-27T14:19:23.859Z,22.26
2018-06-27T14:29:17.659Z,21.59
2018-06-27T14:39:15.706Z,22.19
2018-06-27T14:48:52.045Z,23.90
2018-06-27T14:58:35.645Z,24.50
2018-06-27T15:08:12.500Z,23.15
2018-06-27T15:17:46.266Z,22.23
2018-06-27T15:27:40.561Z,21.36
2018-06-27T15:37:33.691Z,20.23
2018-06-27T15:47:29.267Z,20.19
2018-06-27T15:57:26.043Z,20.74
2018-06-27T16:07:20.288Z,20.74
2018-06-27T16:17:17.221Z,21.38
2018-06-27T16:27:12.954Z,21.16
2018-06-27T16:37:09.501Z,20.99
2018-06-27T16:47:04.955Z,20.42
2018-06-27T16:57:03.014Z,20.33
2018-06-27T17:06:59.134Z,20.34
2018-06-27T17:16:51.539Z,20.20
2018-06-27T17:26:46.644Z,20.30
2018-06-27T17:36:42.341Z,20.27
2018-06-27T17:46:39.685Z,20.15
2018-06-27T17:56:25.809Z,19.87
2018-06-27T18:06:20.996Z,19.64
2018-06-27T18:16:16.406Z,19.51
2018-06-27T18:26:13.769Z,19.76
2018-06-27T18:36:10.919Z,19.64
2018-06-27T18:46:07.497Z,19.53
2018-06-27T18:56:02.046Z,19.38
2018-06-27T19:05:59.248Z,19.24
2018-06-27T19:15:41.491Z,19.08
2018-06-27T19:25:32.779Z,19.02
2018-06-27T19:35:30.588Z,19.13
2018-06-27T19:45:29.683Z,18.94
2018-06-27T19:55:27.012Z,18.46
2018-06-27T20:05:22.709Z,18.35
2018-06-27T20:15:17.299Z,18.27
2018-06-27T20:25:13.807Z,17.76
2018-06-27T20:35:10.071Z,17.33
2018-06-27T20:45:08.064Z,17.21
2018-06-27T20:55:04.772Z,17.26
2018-06-27T21:05:02.746Z,17.39
2018-06-27T21:14:58.671Z,17.36
2018-06-27T21:24:56.967Z,17.26
2018-06-27T21:34:53.733Z,17.08
2018-06-27T21:44:46.857Z,17.23
2018-06-27T21:54:46.064Z,17.05
2018-06-27T22:04:43.881Z,16.75
2018-06-27T22:14:38.500Z,16.53
2018-06-27T22:24:36.284Z,16.29
2018-06-27T22:34:32.132Z,16.10
2018-06-27T22:44:28.696Z,15.91
2018-06-27T22:54:27.119Z,15.91
2018-06-27T23:04:23.084Z,16.15
2018-06-27T23:14:21.276Z,16.10
2018-06-27T23:24:15.539Z,16.08
2018-06-27T23:34:13.969Z,16.10
2018-06-27T23:44:12.011Z,16.03
2018-06-27T23:54:06.094Z,15.94
